createdAt,value
2017-12-02T00:00:15.390Z,173.30
2017-12-02T00:02:08.646Z,256.20
2017-12-02T00:03:08.553Z,261.20
2017-12-02T00:05:01.809Z,216.40
2017-12-02T00:06:01.726Z,197.20
2017-12-02T00:07:54.997Z,283.00
2017-12-02T00:08:54.900Z,242.80
2017-12-02T00:10:48.148Z,215.10
2017-12-02T00:11:48.073Z,235.80
2017-12-02T00:13:41.390Z,194.30
2017-12-02T00:14:41.299Z,202.70
2017-12-02T00:16:34.568Z,155.10
2017-12-02T00:17:34.473Z,133.10
2017-12-02T00:19:27.710Z,196.90
2017-12-02T00:20:27.638Z,139.40
2017-12-02T00:22:20.906Z,163.50
2017-12-02T00:23:20.812Z,183.80
2017-12-02T00:25:14.062Z,136.90
2017-12-02T00:26:13.986Z,115.70
2017-12-02T00:28:07.252Z,104.70
2017-12-02T00:29:07.162Z,102.20
2017-12-02T00:31:00.438Z,91.00
2017-12-02T00:32:00.336Z,81.30
2017-12-02T00:33:53.582Z,99.80
2017-12-02T00:34:53.508Z,92.60
2017-12-02T00:36:46.773Z,117.60
2017-12-02T00:37:46.681Z,144.30
2017-12-02T00:39:39.935Z,167.30
2017-12-02T00:40:39.858Z,113.20
2017-12-02T00:42:33.129Z,141.50
2017-12-02T00:43:33.043Z,99.20
2017-12-02T00:45:26.372Z,92.70
2017-12-02T00:46:26.299Z,82.50
2017-12-02T00:48:19.565Z,78.10
2017-12-02T00:49:19.472Z,93.00
2017-12-02T00:51:12.738Z,111.90
2017-12-02T00:52:12.647Z,109.20
2017-12-02T00:54:05.895Z,96.60
2017-12-02T00:55:05.821Z,96.80
2017-12-02T00:56:59.083Z,131.80
2017-12-02T00:57:58.992Z,150.60
2017-12-02T00:59:52.235Z,151.70
2017-12-02T01:00:52.161Z,170.90
2017-12-02T01:02:45.430Z,176.80
2017-12-02T01:03:45.335Z,152.80
2017-12-02T01:05:38.585Z,100.90
2017-12-02T01:06:38.508Z,105.80
2017-12-02T01:08:31.771Z,109.80
2017-12-02T01:09:31.676Z,149.60
2017-12-02T01:11:24.948Z,113.50
2017-12-02T01:12:24.855Z,111.80
2017-12-02T01:14:18.104Z,104.30
2017-12-02T01:15:18.029Z,136.60
2017-12-02T01:17:11.293Z,151.30
2017-12-02T01:18:11.204Z,155.50
2017-12-02T01:20:04.451Z,112.10
2017-12-02T01:21:04.379Z,128.10
2017-12-02T01:22:57.643Z,171.90
2017-12-02T01:23:57.550Z,139.10
2017-12-02T01:25:50.798Z,120.40
2017-12-02T01:26:50.724Z,117.50
2017-12-02T01:28:43.990Z,101.90
2017-12-02T01:29:43.896Z,108.10
2017-12-02T01:31:37.166Z,127.20
2017-12-02T01:32:37.070Z,105.50
2017-12-02T01:34:30.372Z,117.40
2017-12-02T01:35:30.298Z,106.90
2017-12-02T01:37:23.568Z,113.60
2017-12-02T01:38:23.472Z,146.30
2017-12-02T01:40:16.720Z,229.20
2017-12-02T01:41:16.646Z,123.40
2017-12-02T01:43:09.912Z,158.90
2017-12-02T01:44:09.820Z,116.90
2017-12-02T01:46:03.069Z,148.50
2017-12-02T01:47:02.995Z,126.50
2017-12-02T01:48:56.273Z,92.40
2017-12-02T01:49:56.169Z,99.50
2017-12-02T01:51:49.437Z,83.80
2017-12-02T01:52:49.344Z,84.40
2017-12-02T01:54:42.593Z,77.50
2017-12-02T01:55:42.518Z,96.00
2017-12-02T01:57:35.788Z,193.90
2017-12-02T01:58:35.695Z,272.10
2017-12-02T02:00:28.942Z,251.90
2017-12-02T02:01:28.867Z,354.20
2017-12-02T02:03:22.142Z,169.40
2017-12-02T02:04:22.043Z,223.50
2017-12-02T02:06:15.291Z,194.60
2017-12-02T02:07:15.217Z,184.90
2017-12-02T02:09:08.473Z,227.00
2017-12-02T02:10:08.384Z,238.00
2017-12-02T02:12:01.651Z,152.90
2017-12-02T02:13:01.557Z,159.50
2017-12-02T02:14:54.806Z,117.90
2017-12-02T02:15:54.730Z,110.70
2017-12-02T02:17:48.003Z,104.40
2017-12-02T02:18:47.908Z,101.90
2017-12-02T02:20:41.156Z,90.10
2017-12-02T02:21:41.083Z,90.00
2017-12-02T02:23:34.392Z,98.50
2017-12-02T02:24:34.301Z,91.40
2017-12-02T02:26:27.552Z,112.20
2017-12-02T02:27:27.476Z,106.70
2017-12-02T02:29:20.735Z,97.90
2017-12-02T02:30:20.641Z,110.00
2017-12-02T02:32:13.910Z,96.80
2017-12-02T02:33:13.818Z,91.20
2017-12-02T02:35:07.069Z,92.70
2017-12-02T02:36:06.992Z,89.90
2017-12-02T02:38:00.256Z,118.00
2017-12-02T02:39:00.166Z,132.80
2017-12-02T02:40:53.415Z,104.30
2017-12-02T02:41:53.341Z,111.10
2017-12-02T02:43:46.607Z,122.80
2017-12-02T02:44:46.515Z,106.40
2017-12-02T02:46:39.764Z,92.80
2017-12-02T02:47:39.690Z,106.40
2017-12-02T02:49:32.950Z,122.50
2017-12-02T02:50:32.855Z,144.40
2017-12-02T02:52:26.123Z,198.70
2017-12-02T02:53:26.028Z,153.30
2017-12-02T02:55:19.276Z,132.00
2017-12-02T02:56:19.201Z,114.50
2017-12-02T02:58:12.472Z,144.30
2017-12-02T02:59:12.375Z,132.60
2017-12-02T03:01:05.620Z,110.00
2017-12-02T03:02:05.548Z,113.10
2017-12-02T03:03:58.813Z,107.60
2017-12-02T03:04:58.720Z,140.40
2017-12-02T03:06:51.968Z,94.60
2017-12-02T03:07:51.895Z,93.80
2017-12-02T03:09:45.149Z,169.80
2017-12-02T03:10:45.058Z,194.10
2017-12-02T03:12:38.329Z,183.20
2017-12-02T03:13:38.232Z,182.30
2017-12-02T03:15:31.480Z,123.50
2017-12-02T03:16:31.406Z,121.30
2017-12-02T03:18:24.676Z,213.50
2017-12-02T03:19:24.580Z,166.80
2017-12-02T03:21:17.829Z,104.10
2017-12-02T03:22:17.756Z,116.10
2017-12-02T03:24:11.022Z,173.70
2017-12-02T03:25:10.930Z,171.00
2017-12-02T03:27:04.178Z,236.40
2017-12-02T03:28:04.104Z,201.10
2017-12-02T03:29:57.399Z,159.20
2017-12-02T03:30:57.306Z,152.60
2017-12-02T03:32:50.572Z,173.30
2017-12-02T03:33:50.480Z,176.40
2017-12-02T03:35:43.726Z,161.20
2017-12-02T03:36:43.653Z,156.50
2017-12-02T03:38:36.920Z,200.90
2017-12-02T03:39:36.828Z,131.20
2017-12-02T03:41:30.074Z,152.50
2017-12-02T03:42:30.055Z,120.10
2017-12-02T03:44:23.267Z,122.40
2017-12-02T03:45:23.175Z,150.60
2017-12-02T03:47:16.423Z,154.30
2017-12-02T03:48:16.351Z,170.20
2017-12-02T03:50:09.617Z,138.50
2017-12-02T03:51:09.524Z,146.00
2017-12-02T03:53:02.790Z,185.80
2017-12-02T03:54:02.696Z,142.20
2017-12-02T03:55:55.944Z,133.10
2017-12-02T03:56:55.871Z,176.20
2017-12-02T03:58:49.135Z,130.00
2017-12-02T03:59:49.043Z,127.10
2017-12-02T04:01:42.378Z,236.00
2017-12-02T04:02:42.303Z,149.30
2017-12-02T04:04:35.571Z,117.60
2017-12-02T04:05:35.479Z,110.20
2017-12-02T04:07:28.726Z,143.20
2017-12-02T04:08:28.652Z,110.40
2017-12-02T04:10:21.918Z,157.60
2017-12-02T04:11:21.826Z,152.30
2017-12-02T04:13:15.093Z,160.90
2017-12-02T04:14:15.000Z,159.10
2017-12-02T04:16:08.251Z,174.60
2017-12-02T04:17:08.178Z,168.60
2017-12-02T04:19:01.447Z,162.70
2017-12-02T04:20:01.351Z,151.20
2017-12-02T04:21:54.598Z,126.50
2017-12-02T04:22:54.525Z,146.30
2017-12-02T04:24:47.793Z,137.90
2017-12-02T04:25:47.700Z,132.60
2017-12-02T04:27:40.969Z,126.10
2017-12-02T04:28:40.863Z,145.60
2017-12-02T04:30:34.101Z,128.70
2017-12-02T04:31:34.026Z,136.70
2017-12-02T04:33:27.284Z,111.70
2017-12-02T04:34:27.190Z,110.70
2017-12-02T04:36:20.438Z,122.60
2017-12-02T04:37:20.363Z,102.70
2017-12-02T04:39:13.625Z,118.70
2017-12-02T04:40:13.529Z,145.50
2017-12-02T04:42:06.777Z,115.80
2017-12-02T04:43:06.703Z,128.00
2017-12-02T04:44:59.968Z,109.40
2017-12-02T04:45:59.876Z,115.70
2017-12-02T04:47:53.143Z,119.30
2017-12-02T04:48:53.052Z,133.00
2017-12-02T04:50:46.297Z,144.10
2017-12-02T04:51:46.224Z,154.40
2017-12-02T04:53:39.490Z,146.70
2017-12-02T04:54:39.399Z,119.30
2017-12-02T04:56:32.635Z,106.90
2017-12-02T04:57:32.561Z,107.50
2017-12-02T04:59:25.818Z,108.80
2017-12-02T05:00:25.723Z,115.30
2017-12-02T05:02:18.973Z,113.60
2017-12-02T05:03:18.896Z,118.00
2017-12-02T05:05:12.163Z,87.20
2017-12-02T05:06:12.068Z,87.80
2017-12-02T05:08:05.389Z,90.90
2017-12-02T05:09:05.298Z,95.20
2017-12-02T05:10:58.546Z,110.10
2017-12-02T05:11:58.472Z,105.50
2017-12-02T05:13:51.727Z,89.40
2017-12-02T05:14:51.633Z,102.60
2017-12-02T05:16:44.883Z,103.30
2017-12-02T05:17:44.809Z,113.70
2017-12-02T05:19:38.072Z,106.90
2017-12-02T05:20:37.981Z,108.10
2017-12-02T05:22:31.293Z,107.90
2017-12-02T05:23:31.218Z,107.70
2017-12-02T05:25:24.487Z,82.90
2017-12-02T05:26:24.394Z,110.30
2017-12-02T05:28:17.659Z,101.00
2017-12-02T05:29:17.566Z,99.70
2017-12-02T05:31:10.813Z,90.50
2017-12-02T05:32:10.738Z,98.30
2017-12-02T05:34:04.004Z,80.20
2017-12-02T05:35:03.909Z,93.90
2017-12-02T05:36:57.159Z,93.20
2017-12-02T05:37:57.084Z,87.00
2017-12-02T05:39:50.396Z,92.80
2017-12-02T05:40:50.300Z,105.80
2017-12-02T05:42:43.552Z,124.90
2017-12-02T05:43:43.478Z,109.60
2017-12-02T05:45:36.736Z,93.80
2017-12-02T05:46:36.638Z,97.00
2017-12-02T05:48:29.905Z,90.80
2017-12-02T05:49:29.812Z,101.70
2017-12-02T05:51:23.062Z,92.00
2017-12-02T05:52:22.987Z,111.10
2017-12-02T05:54:16.255Z,95.80
2017-12-02T05:55:16.160Z,106.30
2017-12-02T05:57:09.408Z,119.10
2017-12-02T05:58:09.332Z,105.10
2017-12-02T06:00:02.601Z,112.70
2017-12-02T06:01:02.514Z,105.00
2017-12-02T06:02:55.747Z,104.10
2017-12-02T06:03:55.670Z,100.50
2017-12-02T06:05:48.926Z,117.30
2017-12-02T06:06:48.831Z,126.10
2017-12-02T06:08:42.087Z,113.80
2017-12-02T06:09:41.993Z,118.90
2017-12-02T06:11:35.244Z,131.60
2017-12-02T06:12:35.165Z,123.10
2017-12-02T06:14:28.429Z,122.50
2017-12-02T06:15:28.338Z,111.80
2017-12-02T06:17:21.576Z,134.10
2017-12-02T06:18:21.501Z,142.50
2017-12-02T06:20:14.767Z,123.00
2017-12-02T06:21:14.673Z,125.90
2017-12-02T06:23:07.954Z,110.30
2017-12-02T06:24:07.837Z,121.30
2017-12-02T06:26:01.101Z,112.70
2017-12-02T06:27:01.008Z,118.00
2017-12-02T06:28:54.277Z,112.00
2017-12-02T06:29:54.182Z,97.30
2017-12-02T06:31:47.429Z,103.50
2017-12-02T06:32:47.355Z,97.90
2017-12-02T06:34:40.615Z,111.30
2017-12-02T06:35:40.523Z,116.20
2017-12-02T06:37:33.764Z,119.70
2017-12-02T06:38:33.687Z,116.60
2017-12-02T06:40:26.954Z,110.30
2017-12-02T06:41:26.860Z,138.20
2017-12-02T06:43:20.095Z,101.30
2017-12-02T06:44:20.022Z,96.30
2017-12-02T06:46:13.292Z,86.20
2017-12-02T06:47:13.198Z,129.70
2017-12-02T06:49:06.456Z,93.80
2017-12-02T06:50:06.363Z,93.00
2017-12-02T06:51:59.611Z,118.90
2017-12-02T06:52:59.536Z,97.00
2017-12-02T06:54:52.805Z,111.70
2017-12-02T06:55:52.713Z,103.10
2017-12-02T06:57:45.961Z,114.20
2017-12-02T06:58:45.887Z,109.60
2017-12-02T07:00:39.153Z,110.40
2017-12-02T07:01:39.060Z,109.70
2017-12-02T07:03:32.374Z,101.80
2017-12-02T07:04:32.304Z,99.90
2017-12-02T07:06:25.567Z,91.30
2017-12-02T07:07:25.475Z,92.80
2017-12-02T07:09:18.735Z,77.90
2017-12-02T07:10:18.642Z,91.20
2017-12-02T07:12:11.889Z,74.30
2017-12-02T07:13:11.816Z,75.90
2017-12-02T07:15:05.073Z,78.70
2017-12-02T07:16:04.979Z,73.70
2017-12-02T07:17:58.232Z,76.10
2017-12-02T07:18:58.149Z,74.10
2017-12-02T07:20:51.410Z,78.40
2017-12-02T07:21:51.312Z,81.20
2017-12-02T07:23:44.562Z,76.50
2017-12-02T07:24:44.489Z,70.30
2017-12-02T07:26:37.755Z,86.30
2017-12-02T07:27:37.661Z,78.10
2017-12-02T07:29:30.919Z,71.20
2017-12-02T07:30:30.825Z,67.30
2017-12-02T07:32:24.074Z,68.90
2017-12-02T07:33:23.999Z,68.50
2017-12-02T07:35:17.267Z,56.80
2017-12-02T07:36:17.175Z,60.90
2017-12-02T07:38:11.272Z,61.20
2017-12-02T07:39:11.197Z,60.20
2017-12-02T07:41:04.468Z,62.90
2017-12-02T07:42:04.370Z,58.60
2017-12-02T07:43:57.618Z,79.60
2017-12-02T07:44:57.547Z,88.40
2017-12-02T07:46:50.819Z,83.40
2017-12-02T07:47:50.720Z,88.80
2017-12-02T07:49:43.976Z,78.20
2017-12-02T07:50:43.883Z,86.10
2017-12-02T07:52:37.129Z,64.30
2017-12-02T07:53:37.055Z,70.20
2017-12-02T07:55:30.398Z,63.40
2017-12-02T07:56:30.302Z,59.20
2017-12-02T07:58:23.549Z,85.30
2017-12-02T07:59:23.472Z,77.10
2017-12-02T08:01:16.745Z,98.30
2017-12-02T08:02:16.651Z,90.60
2017-12-02T08:04:09.899Z,93.60
2017-12-02T08:05:09.826Z,97.30
2017-12-02T08:07:03.093Z,95.80
2017-12-02T08:08:02.997Z,84.90
2017-12-02T08:09:56.257Z,99.10
2017-12-02T08:10:56.163Z,81.40
2017-12-02T08:12:49.425Z,91.70
2017-12-02T08:13:49.337Z,115.80
2017-12-02T08:15:42.602Z,86.70
2017-12-02T08:16:42.511Z,86.50
2017-12-02T08:18:35.759Z,86.50
2017-12-02T08:19:35.683Z,99.90
2017-12-02T08:21:28.940Z,64.50
2017-12-02T08:22:28.852Z,61.30
2017-12-02T08:24:22.095Z,66.50
2017-12-02T08:25:22.020Z,68.20
2017-12-02T08:27:15.286Z,58.40
2017-12-02T08:28:15.237Z,56.80
2017-12-02T08:30:08.461Z,87.20
2017-12-02T08:31:08.368Z,71.10
2017-12-02T08:33:01.617Z,68.00
2017-12-02T08:34:01.542Z,53.60
2017-12-02T08:35:54.809Z,58.30
2017-12-02T08:36:54.716Z,59.00
2017-12-02T08:38:47.965Z,49.90
2017-12-02T08:39:47.890Z,50.60
2017-12-02T08:41:41.157Z,49.80
2017-12-02T08:42:41.065Z,80.50
2017-12-02T08:44:34.400Z,56.40
2017-12-02T08:45:34.305Z,79.80
2017-12-02T08:47:27.550Z,75.50
2017-12-02T08:48:27.477Z,91.60
2017-12-02T08:50:20.744Z,49.90
2017-12-02T08:51:20.651Z,51.30
2017-12-02T08:53:13.901Z,60.90
2017-12-02T08:54:13.825Z,56.50
2017-12-02T08:56:07.093Z,73.40
2017-12-02T08:57:06.998Z,64.70
2017-12-02T08:59:00.239Z,55.40
2017-12-02T09:00:00.166Z,62.90
2017-12-02T09:01:53.435Z,45.20
2017-12-02T09:02:53.341Z,52.70
2017-12-02T09:04:46.609Z,51.30
2017-12-02T09:05:46.517Z,42.50
2017-12-02T09:07:39.766Z,45.00
2017-12-02T09:08:39.692Z,53.10
2017-12-02T09:10:32.963Z,43.40
2017-12-02T09:11:32.869Z,58.50
2017-12-02T09:13:26.117Z,54.60
2017-12-02T09:14:26.044Z,53.50
2017-12-02T09:16:19.311Z,53.40
2017-12-02T09:17:19.222Z,49.40
2017-12-02T09:19:12.459Z,55.20
2017-12-02T09:20:12.384Z,59.40
2017-12-02T09:22:05.652Z,41.10
2017-12-02T09:23:05.559Z,37.50
2017-12-02T09:24:58.828Z,50.80
2017-12-02T09:25:58.734Z,55.50
2017-12-02T09:27:51.982Z,50.90
2017-12-02T09:28:51.907Z,46.10
2017-12-02T09:30:45.174Z,53.90
2017-12-02T09:31:45.108Z,59.90
2017-12-02T09:33:38.414Z,57.40
2017-12-02T09:34:38.297Z,55.40
2017-12-02T09:36:31.564Z,51.00
2017-12-02T09:37:31.471Z,51.30
2017-12-02T09:39:24.711Z,49.50
2017-12-02T09:40:24.643Z,58.40
2017-12-02T09:42:17.906Z,42.80
2017-12-02T09:43:17.811Z,36.30
2017-12-02T09:45:11.079Z,37.30
2017-12-02T09:46:10.986Z,32.00
2017-12-02T09:48:04.236Z,34.60
2017-12-02T09:49:04.159Z,34.30
2017-12-02T09:50:57.492Z,40.80
2017-12-02T09:51:57.334Z,38.50
2017-12-02T09:53:50.571Z,38.80
2017-12-02T09:54:50.495Z,41.60
2017-12-02T09:56:43.754Z,42.80
2017-12-02T09:57:43.658Z,40.10
2017-12-02T09:59:36.899Z,43.50
2017-12-02T10:00:36.826Z,44.00
2017-12-02T10:02:30.090Z,55.50
2017-12-02T10:03:29.998Z,59.70
2017-12-02T10:05:23.261Z,43.50
2017-12-02T10:06:23.255Z,49.10
2017-12-02T10:08:16.449Z,53.50
2017-12-02T10:09:16.394Z,53.90
2017-12-02T10:11:10.123Z,59.50
2017-12-02T10:12:09.541Z,55.10
2017-12-02T10:14:02.773Z,55.00
2017-12-02T10:15:02.692Z,61.70
2017-12-02T10:16:55.957Z,56.00
2017-12-02T10:17:55.893Z,59.70
2017-12-02T10:19:49.129Z,51.50
2017-12-02T10:20:49.034Z,54.90
2017-12-02T10:22:42.396Z,43.40
2017-12-02T10:23:42.298Z,43.70
2017-12-02T10:25:35.564Z,45.10
2017-12-02T10:26:35.476Z,40.80
2017-12-02T10:28:28.756Z,43.00
2017-12-02T10:29:28.684Z,39.40
2017-12-02T10:31:21.952Z,44.90
2017-12-02T10:32:21.858Z,43.50
2017-12-02T10:34:15.107Z,35.50
2017-12-02T10:35:15.034Z,35.70
2017-12-02T10:37:08.391Z,32.30
2017-12-02T10:38:08.299Z,32.30
2017-12-02T10:40:01.591Z,28.80
2017-12-02T10:41:01.461Z,32.60
2017-12-02T10:42:54.719Z,26.80
2017-12-02T10:43:54.622Z,27.90
2017-12-02T10:45:47.883Z,30.90
2017-12-02T10:46:47.788Z,31.90
2017-12-02T10:48:41.029Z,34.20
2017-12-02T10:49:40.993Z,34.90
2017-12-02T10:51:34.212Z,28.00
2017-12-02T10:52:34.115Z,27.90
2017-12-02T10:54:27.369Z,33.80
2017-12-02T10:55:27.281Z,39.00
2017-12-02T10:57:20.537Z,32.20
2017-12-02T10:58:20.442Z,32.70
2017-12-02T11:00:13.686Z,29.30
2017-12-02T11:01:13.611Z,28.20
2017-12-02T11:03:06.867Z,25.00
2017-12-02T11:04:06.772Z,24.20
2017-12-02T11:06:00.034Z,27.70
2017-12-02T11:06:59.939Z,32.80
2017-12-02T11:08:53.173Z,26.60
2017-12-02T11:09:53.099Z,29.70
2017-12-02T11:11:46.357Z,30.90
2017-12-02T11:12:46.264Z,32.50
2017-12-02T11:14:39.498Z,36.50
2017-12-02T11:15:39.435Z,34.40
2017-12-02T11:17:32.679Z,33.90
2017-12-02T11:18:32.585Z,34.70
2017-12-02T11:20:25.826Z,33.20
2017-12-02T11:21:25.750Z,35.00
2017-12-02T11:23:19.005Z,31.20
2017-12-02T11:24:18.916Z,40.50
2017-12-02T11:26:12.178Z,40.30
2017-12-02T11:27:12.076Z,39.40
2017-12-02T11:29:05.315Z,35.00
2017-12-02T11:30:05.249Z,39.50
2017-12-02T11:31:58.512Z,34.30
2017-12-02T11:32:58.406Z,33.40
2017-12-02T11:34:51.643Z,36.90
2017-12-02T11:35:51.567Z,34.60
2017-12-02T11:37:44.834Z,35.20
2017-12-02T11:38:44.741Z,36.90
2017-12-02T11:40:37.980Z,39.00
2017-12-02T11:41:37.904Z,35.80
2017-12-02T11:43:31.163Z,28.20
2017-12-02T11:44:31.068Z,28.40
2017-12-02T11:46:24.389Z,28.00
2017-12-02T11:47:24.297Z,33.00
2017-12-02T11:49:17.537Z,30.60
2017-12-02T11:50:17.463Z,31.80
2017-12-02T11:52:10.719Z,32.90
2017-12-02T11:53:10.626Z,29.80
2017-12-02T11:55:03.862Z,29.90
2017-12-02T11:56:03.789Z,27.50
2017-12-02T11:57:57.065Z,28.10
2017-12-02T11:58:56.972Z,34.40
2017-12-02T12:00:50.208Z,34.20
2017-12-02T12:01:50.134Z,33.10
2017-12-02T12:03:43.390Z,31.80
2017-12-02T12:04:43.296Z,32.80
2017-12-02T12:06:36.554Z,32.00
2017-12-02T12:07:36.460Z,33.30
2017-12-02T12:09:29.705Z,37.40
2017-12-02T12:10:29.631Z,39.10
2017-12-02T12:12:22.882Z,39.30
2017-12-02T12:13:22.787Z,32.60
2017-12-02T12:15:16.025Z,33.10
2017-12-02T12:16:15.950Z,33.20
2017-12-02T12:18:09.206Z,29.70
2017-12-02T12:19:09.113Z,30.10
2017-12-02T12:21:02.367Z,32.00
2017-12-02T12:22:02.296Z,27.90
2017-12-02T12:23:55.551Z,30.30
2017-12-02T12:24:55.458Z,33.50
2017-12-02T12:26:48.713Z,31.20
2017-12-02T12:27:48.620Z,29.60
2017-12-02T12:29:41.860Z,31.10
2017-12-02T12:30:41.785Z,32.10
2017-12-02T12:32:35.037Z,31.80
2017-12-02T12:33:34.948Z,33.50
2017-12-02T12:35:28.188Z,34.20
2017-12-02T12:36:28.109Z,32.60
2017-12-02T12:38:21.370Z,32.50
2017-12-02T12:39:21.274Z,33.60
2017-12-02T12:41:14.512Z,36.20
2017-12-02T12:42:14.437Z,33.50
2017-12-02T12:44:07.692Z,35.20
2017-12-02T12:45:07.599Z,33.60
2017-12-02T12:47:00.885Z,36.10
2017-12-02T12:48:00.796Z,35.90
2017-12-02T12:49:54.030Z,34.70
2017-12-02T12:50:53.956Z,34.90
2017-12-02T12:52:47.214Z,29.10
2017-12-02T12:53:47.120Z,34.40
2017-12-02T12:55:40.372Z,27.70
2017-12-02T12:56:40.297Z,30.80
2017-12-02T12:58:33.553Z,33.20
2017-12-02T12:59:33.467Z,35.70
2017-12-02T13:01:26.698Z,30.00
2017-12-02T13:02:26.622Z,32.60
2017-12-02T13:04:19.882Z,39.70
2017-12-02T13:05:19.785Z,34.50
2017-12-02T13:07:13.046Z,28.40
2017-12-02T13:08:12.954Z,31.60
2017-12-02T13:10:06.192Z,28.30
2017-12-02T13:11:06.115Z,31.80
2017-12-02T13:12:59.377Z,27.50
2017-12-02T13:13:59.282Z,32.20
2017-12-02T13:15:52.523Z,31.70
2017-12-02T13:16:52.442Z,32.30
2017-12-02T13:18:45.703Z,30.30
2017-12-02T13:19:45.613Z,30.10
2017-12-02T13:21:38.869Z,33.20
2017-12-02T13:22:38.770Z,33.20
2017-12-02T13:24:32.031Z,29.10
2017-12-02T13:25:31.934Z,31.30
2017-12-02T13:27:25.196Z,32.30
2017-12-02T13:28:25.096Z,36.30
2017-12-02T13:30:18.372Z,34.00
2017-12-02T13:31:18.296Z,29.90
2017-12-02T13:33:11.556Z,36.40
2017-12-02T13:34:11.464Z,34.30
2017-12-02T13:36:04.706Z,33.20
2017-12-02T13:37:04.627Z,31.90
2017-12-02T13:38:57.884Z,31.30
2017-12-02T13:39:57.792Z,29.40
2017-12-02T13:41:51.050Z,35.70
2017-12-02T13:42:50.955Z,33.60
2017-12-02T13:44:44.196Z,28.90
2017-12-02T13:45:44.118Z,32.80
2017-12-02T13:47:37.374Z,30.10
2017-12-02T13:48:37.281Z,32.90
2017-12-02T13:50:30.521Z,27.60
2017-12-02T13:51:30.445Z,28.90
2017-12-02T13:53:23.700Z,36.20
2017-12-02T13:54:23.607Z,37.70
2017-12-02T13:56:16.865Z,41.10
2017-12-02T13:57:16.790Z,36.90
2017-12-02T13:59:10.046Z,31.90
2017-12-02T14:00:09.954Z,37.00
2017-12-02T14:02:03.268Z,35.60
2017-12-02T14:03:03.116Z,34.50
2017-12-02T14:04:56.494Z,34.10
2017-12-02T14:05:56.421Z,32.40
2017-12-02T14:07:49.677Z,34.30
2017-12-02T14:08:49.581Z,36.30
2017-12-02T14:10:42.820Z,35.60
2017-12-02T14:11:42.745Z,41.50
2017-12-02T14:13:36.002Z,37.40
2017-12-02T14:14:35.907Z,36.00
2017-12-02T14:16:29.146Z,39.60
2017-12-02T14:17:29.069Z,39.90
2017-12-02T14:19:22.520Z,37.40
2017-12-02T14:20:22.421Z,39.10
2017-12-02T14:22:15.679Z,45.30
2017-12-02T14:23:15.583Z,36.70
2017-12-02T14:25:08.821Z,41.80
2017-12-02T14:26:08.747Z,40.50
2017-12-02T14:28:02.001Z,37.90
2017-12-02T14:29:01.904Z,36.50
2017-12-02T14:30:55.148Z,35.50
2017-12-02T14:31:55.076Z,34.70
2017-12-02T14:33:48.511Z,34.60
2017-12-02T14:34:48.419Z,37.90
2017-12-02T14:36:41.656Z,35.00
2017-12-02T14:37:41.581Z,35.10
2017-12-02T14:39:34.843Z,41.00
2017-12-02T14:40:34.754Z,36.90
2017-12-02T14:42:28.010Z,33.30
2017-12-02T14:43:27.917Z,35.30
2017-12-02T14:45:21.165Z,32.50
2017-12-02T14:46:21.089Z,33.30
2017-12-02T14:48:14.529Z,31.60
2017-12-02T14:49:14.414Z,33.90
2017-12-02T14:51:07.659Z,34.40
2017-12-02T14:52:07.585Z,39.10
2017-12-02T14:54:00.862Z,35.60
2017-12-02T14:55:00.768Z,35.10
2017-12-02T14:56:54.020Z,30.80
2017-12-02T14:57:53.946Z,34.70
2017-12-02T14:59:47.205Z,35.10
2017-12-02T15:00:47.111Z,35.20
2017-12-02T15:02:40.376Z,35.60
2017-12-02T15:03:40.284Z,39.80
2017-12-02T15:05:33.532Z,37.40
2017-12-02T15:06:33.457Z,41.50
2017-12-02T15:08:26.726Z,43.60
2017-12-02T15:09:26.631Z,44.20
2017-12-02T15:11:19.878Z,54.10
2017-12-02T15:12:19.851Z,59.00
2017-12-02T15:14:13.069Z,39.60
2017-12-02T15:15:12.976Z,41.20
2017-12-02T15:17:06.224Z,46.20
2017-12-02T15:18:06.149Z,48.80
2017-12-02T15:19:59.514Z,48.50
2017-12-02T15:20:59.424Z,45.90
2017-12-02T15:22:52.689Z,37.90
2017-12-02T15:23:52.597Z,40.80
2017-12-02T15:25:45.845Z,47.10
2017-12-02T15:26:45.776Z,46.70
2017-12-02T15:28:39.037Z,45.40
2017-12-02T15:29:38.942Z,40.50
2017-12-02T15:31:32.192Z,45.20
2017-12-02T15:32:32.117Z,48.40
2017-12-02T15:34:25.512Z,47.60
2017-12-02T15:35:25.418Z,50.80
2017-12-02T15:37:18.666Z,48.20
2017-12-02T15:38:18.591Z,51.70
2017-12-02T15:40:11.858Z,51.00
2017-12-02T15:41:11.763Z,51.00
2017-12-02T15:43:05.029Z,45.60
2017-12-02T15:44:04.937Z,49.20
2017-12-02T15:45:58.183Z,58.40
2017-12-02T15:46:58.109Z,64.60
2017-12-02T15:48:51.517Z,55.70
2017-12-02T15:49:51.452Z,57.40
2017-12-02T15:51:44.669Z,74.50
2017-12-02T15:52:44.595Z,64.10
2017-12-02T15:54:37.860Z,79.50
2017-12-02T15:55:37.768Z,78.40
2017-12-02T15:57:31.013Z,81.50
2017-12-02T15:58:30.939Z,84.00
2017-12-02T16:00:24.235Z,81.10
2017-12-02T16:01:24.141Z,77.30
2017-12-02T16:03:17.453Z,85.50
2017-12-02T16:04:17.315Z,84.40
2017-12-02T16:06:10.565Z,78.70
2017-12-02T16:07:10.487Z,90.50
2017-12-02T16:09:03.745Z,81.50
2017-12-02T16:10:03.690Z,82.20
2017-12-02T16:11:56.899Z,72.00
2017-12-02T16:12:56.822Z,75.20
2017-12-02T16:14:50.111Z,78.30
2017-12-02T16:15:50.017Z,75.30
2017-12-02T16:17:43.265Z,74.60
2017-12-02T16:18:43.190Z,79.90
2017-12-02T16:20:36.457Z,86.20
2017-12-02T16:21:36.362Z,83.90
2017-12-02T16:23:29.629Z,81.10
2017-12-02T16:24:29.536Z,89.80
2017-12-02T16:26:22.786Z,108.50
2017-12-02T16:27:22.711Z,92.30
2017-12-02T16:29:15.971Z,82.60
2017-12-02T16:30:15.873Z,78.80
2017-12-02T16:32:09.125Z,89.40
2017-12-02T16:33:09.050Z,86.90
2017-12-02T16:35:02.315Z,103.90
2017-12-02T16:36:02.223Z,101.30
2017-12-02T16:37:55.477Z,116.50
2017-12-02T16:38:55.397Z,112.80
2017-12-02T16:40:48.661Z,109.90
2017-12-02T16:41:48.570Z,101.10
2017-12-02T16:43:41.835Z,103.40
2017-12-02T16:44:41.734Z,104.00
2017-12-02T16:46:34.991Z,113.50
2017-12-02T16:47:34.915Z,103.30
2017-12-02T16:49:28.171Z,103.80
2017-12-02T16:50:28.081Z,99.80
2017-12-02T16:52:21.349Z,92.50
2017-12-02T16:53:21.253Z,85.60
2017-12-02T16:55:14.520Z,87.80
2017-12-02T16:56:14.425Z,94.80
2017-12-02T16:58:07.686Z,95.10
2017-12-02T16:59:07.600Z,98.80
2017-12-02T17:01:00.870Z,86.10
2017-12-02T17:02:00.771Z,94.20
2017-12-02T17:03:54.036Z,89.30
2017-12-02T17:04:53.943Z,81.10
2017-12-02T17:06:47.200Z,84.40
2017-12-02T17:07:47.127Z,83.80
2017-12-02T17:09:40.394Z,85.30
2017-12-02T17:10:40.301Z,81.40
2017-12-02T17:12:33.549Z,94.10
2017-12-02T17:13:33.475Z,105.90
2017-12-02T17:15:26.739Z,85.30
2017-12-02T17:16:26.647Z,84.70
2017-12-02T17:18:19.899Z,89.20
2017-12-02T17:19:19.822Z,72.40
2017-12-02T17:21:13.091Z,92.90
2017-12-02T17:22:12.997Z,98.10
2017-12-02T17:24:06.269Z,102.20
2017-12-02T17:25:06.169Z,105.70
2017-12-02T17:26:59.416Z,103.20
2017-12-02T17:27:59.349Z,99.70
2017-12-02T17:29:52.603Z,100.40
2017-12-02T17:30:52.512Z,114.20
2017-12-02T17:32:45.760Z,106.80
2017-12-02T17:33:45.687Z,106.00
2017-12-02T17:35:38.951Z,102.80
2017-12-02T17:36:38.856Z,105.90
2017-12-02T17:38:32.103Z,107.90
2017-12-02T17:39:32.031Z,95.40
2017-12-02T17:41:25.297Z,91.80
2017-12-02T17:42:25.203Z,83.80
2017-12-02T17:44:18.470Z,96.50
2017-12-02T17:45:18.376Z,88.00
2017-12-02T17:47:11.626Z,85.30
2017-12-02T17:48:11.551Z,88.60
2017-12-02T17:50:04.816Z,76.20
2017-12-02T17:51:04.725Z,79.00
2017-12-02T17:52:57.982Z,70.20
2017-12-02T17:53:57.906Z,75.50
2017-12-02T17:55:51.171Z,81.00
2017-12-02T17:56:51.081Z,76.50
2017-12-02T17:58:44.371Z,77.40
2017-12-02T17:59:44.300Z,83.90
2017-12-02T18:01:37.563Z,75.00
2017-12-02T18:02:37.476Z,71.10
2017-12-02T18:04:30.735Z,69.20
2017-12-02T18:05:30.644Z,72.30
2017-12-02T18:07:23.889Z,75.90
2017-12-02T18:08:23.820Z,73.40
2017-12-02T18:10:17.085Z,79.80
2017-12-02T18:11:16.990Z,76.10
2017-12-02T18:13:10.238Z,72.60
2017-12-02T18:14:10.163Z,74.00
2017-12-02T18:16:03.434Z,80.90
2017-12-02T18:17:03.341Z,72.80
2017-12-02T18:18:56.587Z,74.20
2017-12-02T18:19:56.514Z,80.00
2017-12-02T18:21:49.785Z,79.70
2017-12-02T18:22:49.687Z,85.00